sensor_id;sensor_type;location;lat;lon;timestamp;P1;durP1;ratioP1;P2;durP2;ratioP2
9128;SDS011;4599;50.906;6.786;2023-04-23T00:00:28;13.80;;;10.80;;
9128;SDS011;4599;50.906;6.786;2023-04-23T00:04:31;11.67;;;10.37;;
9128;SDS011;4599;50.906;6.786;2023-04-23T00:08:33;12.77;;;11.30;;
9128;SDS011;4599;50.906;6.786;2023-04-23T00:12:35;13.47;;;12.07;;
9128;SDS011;4599;50.906;6.786;2023-04-23T00:16:37;13.60;;;11.43;;
9128;SDS011;4599;50.906;6.786;2023-04-23T00:20:40;12.73;;;11.30;;
9128;SDS011;4599;50.906;6.786;2023-04-23T00:24:42;13.57;;;11.57;;
9128;SDS011;4599;50.906;6.786;2023-04-23T00:28:43;18.50;;;11.03;;
9128;SDS011;4599;50.906;6.786;2023-04-23T00:32:45;12.00;;;10.20;;
9128;SDS011;4599;50.906;6.786;2023-04-23T00:36:48;12.07;;;10.87;;
9128;SDS011;4599;50.906;6.786;2023-04-23T00:40:49;12.23;;;10.90;;
9128;SDS011;4599;50.906;6.786;2023-04-23T00:44:51;13.03;;;11.20;;
9128;SDS011;4599;50.906;6.786;2023-04-23T00:48:53;12.20;;;10.90;;
9128;SDS011;4599;50.906;6.786;2023-04-23T00:52:58;11.87;;;10.70;;
9128;SDS011;4599;50.906;6.786;2023-04-23T00:57:00;13.47;;;11.70;;
9128;SDS011;4599;50.906;6.786;2023-04-23T01:01:01;11.90;;;10.70;;
9128;SDS011;4599;50.906;6.786;2023-04-23T01:05:03;13.80;;;10.57;;
9128;SDS011;4599;50.906;6.786;2023-04-23T01:09:08;15.23;;;11.30;;
9128;SDS011;4599;50.906;6.786;2023-04-23T01:13:10;13.77;;;12.23;;
9128;SDS011;4599;50.906;6.786;2023-04-23T01:17:13;14.07;;;12.67;;
9128;SDS011;4599;50.906;6.786;2023-04-23T01:21:14;13.03;;;11.63;;
9128;SDS011;4599;50.906;6.786;2023-04-23T01:25:19;15.77;;;13.20;;
9128;SDS011;4599;50.906;6.786;2023-04-23T01:29:21;16.07;;;14.37;;
9128;SDS011;4599;50.906;6.786;2023-04-23T01:33:22;15.80;;;14.10;;
9128;SDS011;4599;50.906;6.786;2023-04-23T01:37:24;16.93;;;14.87;;
9128;SDS011;4599;50.906;6.786;2023-04-23T01:41:28;16.63;;;14.70;;
9128;SDS011;4599;50.906;6.786;2023-04-23T01:45:30;16.97;;;14.57;;
9128;SDS011;4599;50.906;6.786;2023-04-23T01:49:31;16.07;;;14.17;;
9128;SDS011;4599;50.906;6.786;2023-04-23T01:53:33;16.90;;;14.83;;
9128;SDS011;4599;50.906;6.786;2023-04-23T01:57:36;17.50;;;15.70;;
9128;SDS011;4599;50.906;6.786;2023-04-23T02:01:40;16.57;;;14.77;;
9128;SDS011;4599;50.906;6.786;2023-04-23T02:05:43;18.13;;;15.03;;
9128;SDS011;4599;50.906;6.786;2023-04-23T02:09:44;17.83;;;14.80;;
9128;SDS011;4599;50.906;6.786;2023-04-23T02:13:47;16.50;;;14.80;;
9128;SDS011;4599;50.906;6.786;2023-04-23T02:17:49;18.20;;;14.57;;
9128;SDS011;4599;50.906;6.786;2023-04-23T02:21:50;18.07;;;15.03;;
9128;SDS011;4599;50.906;6.786;2023-04-23T02:25:51;17.27;;;14.53;;
9128;SDS011;4599;50.906;6.786;2023-04-23T02:29:54;18.87;;;15.17;;
9128;SDS011;4599;50.906;6.786;2023-04-23T02:33:56;19.23;;;14.93;;
9128;SDS011;4599;50.906;6.786;2023-04-23T02:37:57;16.47;;;14.57;;
9128;SDS011;4599;50.906;6.786;2023-04-23T02:41:59;18.67;;;13.50;;
9128;SDS011;4599;50.906;6.786;2023-04-23T02:46:02;15.33;;;13.47;;
9128;SDS011;4599;50.906;6.786;2023-04-23T02:50:04;14.50;;;13.00;;
9128;SDS011;4599;50.906;6.786;2023-04-23T02:54:06;16.60;;;13.80;;
9128;SDS011;4599;50.906;6.786;2023-04-23T02:58:07;14.33;;;12.50;;
9128;SDS011;4599;50.906;6.786;2023-04-23T03:02:10;16.97;;;13.43;;
9128;SDS011;4599;50.906;6.786;2023-04-23T03:06:13;17.03;;;13.37;;
9128;SDS011;4599;50.906;6.786;2023-04-23T03:10:15;15.20;;;12.60;;
9128;SDS011;4599;50.906;6.786;2023-04-23T03:14:16;13.87;;;12.03;;
9128;SDS011;4599;50.906;6.786;2023-04-23T03:18:19;17.07;;;12.77;;
9128;SDS011;4599;50.906;6.786;2023-04-23T03:22:21;12.73;;;11.43;;
9128;SDS011;4599;50.906;6.786;2023-04-23T03:26:22;13.43;;;11.63;;
9128;SDS011;4599;50.906;6.786;2023-04-23T03:30:24;12.73;;;11.30;;
9128;SDS011;4599;50.906;6.786;2023-04-23T03:34:26;11.90;;;10.67;;
9128;SDS011;4599;50.906;6.786;2023-04-23T03:38:28;13.30;;;11.40;;
9128;SDS011;4599;50.906;6.786;2023-04-23T03:42:29;12.57;;;11.27;;
9128;SDS011;4599;50.906;6.786;2023-04-23T03:46:31;13.57;;;12.17;;
9128;SDS011;4599;50.906;6.786;2023-04-23T03:50:34;13.80;;;11.87;;
9128;SDS011;4599;50.906;6.786;2023-04-23T03:54:36;17.50;;;12.10;;
9128;SDS011;4599;50.906;6.786;2023-04-23T03:58:37;14.63;;;13.07;;
9128;SDS011;4599;50.906;6.786;2023-04-23T04:02:38;13.47;;;12.07;;
9128;SDS011;4599;50.906;6.786;2023-04-23T04:06:43;12.80;;;11.50;;
9128;SDS011;4599;50.906;6.786;2023-04-23T04:10:44;12.47;;;11.17;;
9128;SDS011;4599;50.906;6.786;2023-04-23T04:14:46;11.97;;;10.67;;
9128;SDS011;4599;50.906;6.786;2023-04-23T04:18:48;12.47;;;11.07;;
9128;SDS011;4599;50.906;6.786;2023-04-23T04:22:50;12.80;;;10.50;;
9128;SDS011;4599;50.906;6.786;2023-04-23T04:26:52;12.90;;;10.30;;
9128;SDS011;4599;50.906;6.786;2023-04-23T04:30:54;11.23;;;9.63;;
9128;SDS011;4599;50.906;6.786;2023-04-23T04:34:55;10.57;;;9.17;;
9128;SDS011;4599;50.906;6.786;2023-04-23T04:38:58;14.10;;;10.03;;
9128;SDS011;4599;50.906;6.786;2023-04-23T04:42:59;9.67;;;8.67;;
9128;SDS011;4599;50.906;6.786;2023-04-23T04:47:01;12.87;;;9.27;;
9128;SDS011;4599;50.906;6.786;2023-04-23T04:51:02;12.30;;;9.57;;
9128;SDS011;4599;50.906;6.786;2023-04-23T04:55:06;12.13;;;9.00;;
9128;SDS011;4599;50.906;6.786;2023-04-23T04:59:08;10.77;;;9.03;;
9128;SDS011;4599;50.906;6.786;2023-04-23T05:03:10;11.93;;;8.30;;
9128;SDS011;4599;50.906;6.786;2023-04-23T05:07:14;10.13;;;8.40;;
9128;SDS011;4599;50.906;6.786;2023-04-23T05:11:17;10.20;;;8.30;;
9128;SDS011;4599;50.906;6.786;2023-04-23T05:15:19;11.33;;;8.97;;
9128;SDS011;4599;50.906;6.786;2023-04-23T05:19:21;9.43;;;8.47;;
9128;SDS011;4599;50.906;6.786;2023-04-23T05:23:22;8.53;;;7.63;;
9128;SDS011;4599;50.906;6.786;2023-04-23T05:27:27;9.97;;;7.70;;
9128;SDS011;4599;50.906;6.786;2023-04-23T05:31:31;8.43;;;7.57;;
9128;SDS011;4599;50.906;6.786;2023-04-23T05:35:32;8.30;;;7.60;;
9128;SDS011;4599;50.906;6.786;2023-04-23T05:39:34;10.53;;;7.30;;
9128;SDS011;4599;50.906;6.786;2023-04-23T05:43:37;8.47;;;7.67;;
9128;SDS011;4599;50.906;6.786;2023-04-23T05:47:38;10.23;;;7.33;;
9128;SDS011;4599;50.906;6.786;2023-04-23T05:51:39;8.63;;;7.03;;
9128;SDS011;4599;50.906;6.786;2023-04-23T05:55:41;7.80;;;7.03;;
9128;SDS011;4599;50.906;6.786;2023-04-23T05:59:44;7.40;;;6.63;;
9128;SDS011;4599;50.906;6.786;2023-04-23T06:03:45;8.83;;;7.13;;
9128;SDS011;4599;50.906;6.786;2023-04-23T06:07:47;8.30;;;6.37;;
9128;SDS011;4599;50.906;6.786;2023-04-23T06:11:50;7.03;;;6.33;;
9128;SDS011;4599;50.906;6.786;2023-04-23T06:15:53;6.67;;;5.90;;
9128;SDS011;4599;50.906;6.786;2023-04-23T06:19:55;8.63;;;5.60;;
9128;SDS011;4599;50.906;6.786;2023-04-23T06:23:57;8.30;;;5.63;;
9128;SDS011;4599;50.906;6.786;2023-04-23T06:27:58;6.17;;;4.87;;
9128;SDS011;4599;50.906;6.786;2023-04-23T06:32:01;6.27;;;4.90;;
9128;SDS011;4599;50.906;6.786;2023-04-23T06:36:03;5.07;;;4.60;;
9128;SDS011;4599;50.906;6.786;2023-04-23T06:40:06;5.03;;;4.40;;
9128;SDS011;4599;50.906;6.786;2023-04-23T06:44:08;7.30;;;4.70;;
9128;SDS011;4599;50.906;6.786;2023-04-23T06:48:11;5.13;;;3.97;;
9128;SDS011;4599;50.906;6.786;2023-04-23T06:52:13;5.50;;;3.90;;
9128;SDS011;4599;50.906;6.786;2023-04-23T06:56:14;3.90;;;3.47;;
9128;SDS011;4599;50.906;6.786;2023-04-23T07:00:16;4.93;;;3.97;;
9128;SDS011;4599;50.906;6.786;2023-04-23T07:04:19;4.63;;;3.33;;
9128;SDS011;4599;50.906;6.786;2023-04-23T07:08:21;4.43;;;3.97;;
9128;SDS011;4599;50.906;6.786;2023-04-23T07:12:22;4.03;;;3.33;;
9128;SDS011;4599;50.906;6.786;2023-04-23T07:16:24;3.83;;;3.20;;
9128;SDS011;4599;50.906;6.786;2023-04-23T07:20:27;5.37;;;3.00;;
9128;SDS011;4599;50.906;6.786;2023-04-23T07:24:29;3.33;;;2.70;;
9128;SDS011;4599;50.906;6.786;2023-04-23T07:28:30;3.83;;;2.60;;
9128;SDS011;4599;50.906;6.786;2023-04-23T07:32:32;3.43;;;2.50;;
9128;SDS011;4599;50.906;6.786;2023-04-23T07:36:35;3.53;;;2.83;;
9128;SDS011;4599;50.906;6.786;2023-04-23T07:40:37;3.57;;;2.83;;
9128;SDS011;4599;50.906;6.786;2023-04-23T07:44:38;4.27;;;2.60;;
9128;SDS011;4599;50.906;6.786;2023-04-23T07:48:41;4.00;;;2.30;;
9128;SDS011;4599;50.906;6.786;2023-04-23T07:52:44;3.23;;;2.20;;
9128;SDS011;4599;50.906;6.786;2023-04-23T07:56:45;4.57;;;2.13;;
9128;SDS011;4599;50.906;6.786;2023-04-23T08:00:47;3.27;;;2.30;;
9128;SDS011;4599;50.906;6.786;2023-04-23T08:04:48;4.83;;;2.20;;
9128;SDS011;4599;50.906;6.786;2023-04-23T08:08:51;5.07;;;2.60;;
9128;SDS011;4599;50.906;6.786;2023-04-23T08:12:52;7.87;;;2.40;;
9128;SDS011;4599;50.906;6.786;2023-04-23T08:16:54;10.13;;;2.43;;
9128;SDS011;4599;50.906;6.786;2023-04-23T08:20:57;4.07;;;2.50;;
9128;SDS011;4599;50.906;6.786;2023-04-23T08:25:00;3.07;;;2.73;;
9128;SDS011;4599;50.906;6.786;2023-04-23T08:29:01;5.10;;;2.30;;
9128;SDS011;4599;50.906;6.786;2023-04-23T08:33:03;2.73;;;1.97;;
9128;SDS011;4599;50.906;6.786;2023-04-23T08:37:05;3.83;;;2.07;;
9128;SDS011;4599;50.906;6.786;2023-04-23T08:41:18;3.53;;;2.00;;
9128;SDS011;4599;50.906;6.786;2023-04-23T08:45:23;5.90;;;2.10;;
9128;SDS011;4599;50.906;6.786;2023-04-23T08:49:25;3.60;;;1.80;;
9128;SDS011;4599;50.906;6.786;2023-04-23T08:53:33;2.70;;;1.60;;
9128;SDS011;4599;50.906;6.786;2023-04-23T08:57:36;3.83;;;1.83;;
9128;SDS011;4599;50.906;6.786;2023-04-23T09:01:40;4.00;;;1.70;;
9128;SDS011;4599;50.906;6.786;2023-04-23T09:05:42;3.40;;;1.50;;
9128;SDS011;4599;50.906;6.786;2023-04-23T09:09:44;2.33;;;1.50;;
9128;SDS011;4599;50.906;6.786;2023-04-23T09:13:47;5.03;;;1.80;;
9128;SDS011;4599;50.906;6.786;2023-04-23T09:17:48;3.67;;;1.67;;
9128;SDS011;4599;50.906;6.786;2023-04-23T09:21:50;3.80;;;1.90;;
9128;SDS011;4599;50.906;6.786;2023-04-23T09:25:52;2.70;;;1.50;;
9128;SDS011;4599;50.906;6.786;2023-04-23T09:29:55;1.77;;;1.40;;
9128;SDS011;4599;50.906;6.786;2023-04-23T09:33:56;3.37;;;1.37;;
9128;SDS011;4599;50.906;6.786;2023-04-23T09:37:58;3.67;;;1.40;;
9128;SDS011;4599;50.906;6.786;2023-04-23T09:42:01;2.83;;;1.27;;
9128;SDS011;4599;50.906;6.786;2023-04-23T09:46:06;3.07;;;1.47;;
9128;SDS011;4599;50.906;6.786;2023-04-23T09:50:07;2.77;;;1.40;;
9128;SDS011;4599;50.906;6.786;2023-04-23T09:54:10;4.17;;;1.60;;
9128;SDS011;4599;50.906;6.786;2023-04-23T09:58:13;5.17;;;1.47;;
9128;SDS011;4599;50.906;6.786;2023-04-23T10:02:17;3.00;;;1.40;;
9128;SDS011;4599;50.906;6.786;2023-04-23T10:06:19;4.57;;;1.30;;
9128;SDS011;4599;50.906;6.786;2023-04-23T10:10:31;4.30;;;1.40;;
9128;SDS011;4599;50.906;6.786;2023-04-23T10:14:43;2.50;;;1.37;;
9128;SDS011;4599;50.906;6.786;2023-04-23T10:18:47;2.60;;;1.20;;
9128;SDS011;4599;50.906;6.786;2023-04-23T10:22:51;1.90;;;1.27;;
9128;SDS011;4599;50.906;6.786;2023-04-23T10:26:55;2.60;;;1.23;;
9128;SDS011;4599;50.906;6.786;2023-04-23T10:31:02;4.13;;;1.70;;
9128;SDS011;4599;50.906;6.786;2023-04-23T10:35:07;2.93;;;1.27;;
9128;SDS011;4599;50.906;6.786;2023-04-23T10:39:10;1.53;;;1.10;;
9128;SDS011;4599;50.906;6.786;2023-04-23T10:43:21;1.90;;;1.20;;
9128;SDS011;4599;50.906;6.786;2023-04-23T10:47:23;2.90;;;1.10;;
9128;SDS011;4599;50.906;6.786;2023-04-23T10:51:32;2.27;;;1.30;;
9128;SDS011;4599;50.906;6.786;2023-04-23T10:56:03;2.60;;;1.00;;
9128;SDS011;4599;50.906;6.786;2023-04-23T11:00:06;3.60;;;1.20;;
9128;SDS011;4599;50.906;6.786;2023-04-23T11:04:21;1.73;;;1.10;;
9128;SDS011;4599;50.906;6.786;2023-04-23T11:08:25;7.20;;;1.20;;
9128;SDS011;4599;50.906;6.786;2023-04-23T11:12:30;3.83;;;1.50;;
9128;SDS011;4599;50.906;6.786;2023-04-23T11:16:32;2.23;;;1.20;;
9128;SDS011;4599;50.906;6.786;2023-04-23T11:20:34;4.00;;;1.40;;
9128;SDS011;4599;50.906;6.786;2023-04-23T11:24:37;3.43;;;1.30;;
9128;SDS011;4599;50.906;6.786;2023-04-23T11:28:40;2.30;;;1.13;;
9128;SDS011;4599;50.906;6.786;2023-04-23T11:32:44;5.20;;;1.13;;
9128;SDS011;4599;50.906;6.786;2023-04-23T11:36:46;2.63;;;1.23;;
9128;SDS011;4599;50.906;6.786;2023-04-23T11:40:52;3.60;;;1.20;;
9128;SDS011;4599;50.906;6.786;2023-04-23T11:44:54;4.63;;;1.30;;
9128;SDS011;4599;50.906;6.786;2023-04-23T11:48:55;3.23;;;1.20;;
9128;SDS011;4599;50.906;6.786;2023-04-23T11:53:03;2.87;;;1.30;;
9128;SDS011;4599;50.906;6.786;2023-04-23T11:57:06;3.23;;;1.10;;
9128;SDS011;4599;50.906;6.786;2023-04-23T12:01:09;6.47;;;1.63;;
9128;SDS011;4599;50.906;6.786;2023-04-23T12:05:11;2.63;;;1.30;;
9128;SDS011;4599;50.906;6.786;2023-04-23T12:09:13;2.50;;;1.13;;
9128;SDS011;4599;50.906;6.786;2023-04-23T12:13:17;2.40;;;1.30;;
9128;SDS011;4599;50.906;6.786;2023-04-23T12:17:21;3.83;;;1.30;;
9128;SDS011;4599;50.906;6.786;2023-04-23T12:21:22;1.97;;;1.10;;
9128;SDS011;4599;50.906;6.786;2023-04-23T12:25:26;2.93;;;1.50;;
9128;SDS011;4599;50.906;6.786;2023-04-23T12:29:30;3.37;;;1.27;;
9128;SDS011;4599;50.906;6.786;2023-04-23T12:33:32;2.80;;;1.17;;
9128;SDS011;4599;50.906;6.786;2023-04-23T12:37:34;5.80;;;1.20;;
9128;SDS011;4599;50.906;6.786;2023-04-23T12:41:36;4.67;;;1.30;;
9128;SDS011;4599;50.906;6.786;2023-04-23T12:45:39;3.63;;;1.53;;
9128;SDS011;4599;50.906;6.786;2023-04-23T12:49:41;2.20;;;1.40;;
9128;SDS011;4599;50.906;6.786;2023-04-23T12:53:42;6.83;;;2.77;;
9128;SDS011;4599;50.906;6.786;2023-04-23T12:57:44;4.63;;;1.40;;
9128;SDS011;4599;50.906;6.786;2023-04-23T13:01:47;5.37;;;1.40;;
9128;SDS011;4599;50.906;6.786;2023-04-23T13:05:48;2.37;;;1.60;;
9128;SDS011;4599;50.906;6.786;2023-04-23T13:09:50;3.63;;;1.43;;
9128;SDS011;4599;50.906;6.786;2023-04-23T13:13:51;3.03;;;1.13;;
9128;SDS011;4599;50.906;6.786;2023-04-23T13:17:54;2.77;;;1.60;;
9128;SDS011;4599;50.906;6.786;2023-04-23T13:21:56;2.93;;;1.20;;
9128;SDS011;4599;50.906;6.786;2023-04-23T13:25:57;2.47;;;1.13;;
9128;SDS011;4599;50.906;6.786;2023-04-23T13:29:59;2.10;;;1.10;;
9128;SDS011;4599;50.906;6.786;2023-04-23T13:34:01;4.40;;;1.30;;
9128;SDS011;4599;50.906;6.786;2023-04-23T13:38:03;2.77;;;1.40;;
9128;SDS011;4599;50.906;6.786;2023-04-23T13:42:04;2.83;;;1.10;;
9128;SDS011;4599;50.906;6.786;2023-04-23T13:46:10;7.23;;;1.43;;
9128;SDS011;4599;50.906;6.786;2023-04-23T13:50:13;2.40;;;1.17;;
9128;SDS011;4599;50.906;6.786;2023-04-23T13:54:14;2.47;;;1.90;;
9128;SDS011;4599;50.906;6.786;2023-04-23T13:58:16;2.27;;;0.90;;
9128;SDS011;4599;50.906;6.786;2023-04-23T14:02:18;1.40;;;1.00;;
9128;SDS011;4599;50.906;6.786;2023-04-23T14:06:21;2.60;;;1.10;;
9128;SDS011;4599;50.906;6.786;2023-04-23T14:10:22;3.23;;;1.50;;
9128;SDS011;4599;50.906;6.786;2023-04-23T14:14:24;4.47;;;1.20;;
9128;SDS011;4599;50.906;6.786;2023-04-23T14:18:25;3.13;;;1.47;;
9128;SDS011;4599;50.906;6.786;2023-04-23T14:22:28;2.60;;;1.60;;
9128;SDS011;4599;50.906;6.786;2023-04-23T14:26:32;4.37;;;2.73;;
9128;SDS011;4599;50.906;6.786;2023-04-23T14:30:48;4.60;;;1.47;;
9128;SDS011;4599;50.906;6.786;2023-04-23T14:34:54;3.83;;;1.57;;
9128;SDS011;4599;50.906;6.786;2023-04-23T14:38:57;3.57;;;1.80;;
9128;SDS011;4599;50.906;6.786;2023-04-23T14:42:58;3.77;;;2.00;;
9128;SDS011;4599;50.906;6.786;2023-04-23T14:47:15;2.33;;;1.63;;
9128;SDS011;4599;50.906;6.786;2023-04-23T14:51:16;2.73;;;1.63;;
9128;SDS011;4599;50.906;6.786;2023-04-23T14:55:19;3.43;;;1.67;;
9128;SDS011;4599;50.906;6.786;2023-04-23T14:59:22;3.67;;;1.80;;
9128;SDS011;4599;50.906;6.786;2023-04-23T15:03:23;6.27;;;2.10;;
9128;SDS011;4599;50.906;6.786;2023-04-23T15:07:25;2.40;;;2.10;;
9128;SDS011;4599;50.906;6.786;2023-04-23T15:11:28;3.40;;;1.90;;
9128;SDS011;4599;50.906;6.786;2023-04-23T15:15:36;2.23;;;1.90;;
9128;SDS011;4599;50.906;6.786;2023-04-23T15:19:45;1.80;;;1.70;;
9128;SDS011;4599;50.906;6.786;2023-04-23T15:23:46;7.70;;;2.20;;
9128;SDS011;4599;50.906;6.786;2023-04-23T15:27:49;3.00;;;1.83;;
9128;SDS011;4599;50.906;6.786;2023-04-23T15:31:51;4.97;;;2.00;;
9128;SDS011;4599;50.906;6.786;2023-04-23T15:35:52;3.10;;;2.00;;
9128;SDS011;4599;50.906;6.786;2023-04-23T15:39:55;2.77;;;1.80;;
9128;SDS011;4599;50.906;6.786;2023-04-23T15:43:58;4.40;;;2.40;;
9128;SDS011;4599;50.906;6.786;2023-04-23T15:48:01;5.20;;;2.30;;
9128;SDS011;4599;50.906;6.786;2023-04-23T15:52:03;5.10;;;2.20;;
9128;SDS011;4599;50.906;6.786;2023-04-23T15:56:04;3.13;;;2.37;;
9128;SDS011;4599;50.906;6.786;2023-04-23T16:00:08;4.27;;;2.70;;
9128;SDS011;4599;50.906;6.786;2023-04-23T16:04:10;3.23;;;2.80;;
9128;SDS011;4599;50.906;6.786;2023-04-23T16:08:12;4.07;;;2.27;;
9128;SDS011;4599;50.906;6.786;2023-04-23T16:12:14;4.93;;;2.17;;
9128;SDS011;4599;50.906;6.786;2023-04-23T16:16:19;2.50;;;1.30;;
9128;SDS011;4599;50.906;6.786;2023-04-23T16:20:21;2.80;;;1.73;;
9128;SDS011;4599;50.906;6.786;2023-04-23T16:24:22;3.30;;;1.33;;
9128;SDS011;4599;50.906;6.786;2023-04-23T16:28:24;3.90;;;2.53;;
9128;SDS011;4599;50.906;6.786;2023-04-23T16:32:27;1.30;;;1.20;;
9128;SDS011;4599;50.906;6.786;2023-04-23T16:36:28;4.33;;;1.90;;
9128;SDS011;4599;50.906;6.786;2023-04-23T16:40:30;2.97;;;1.20;;
9128;SDS011;4599;50.906;6.786;2023-04-23T16:44:31;2.20;;;1.30;;
9128;SDS011;4599;50.906;6.786;2023-04-23T16:48:34;1.83;;;1.20;;
9128;SDS011;4599;50.906;6.786;2023-04-23T16:52:36;2.80;;;1.10;;
9128;SDS011;4599;50.906;6.786;2023-04-23T16:56:37;2.27;;;2.03;;
9128;SDS011;4599;50.906;6.786;2023-04-23T17:00:39;3.47;;;1.67;;
9128;SDS011;4599;50.906;6.786;2023-04-23T17:04:42;3.30;;;2.00;;
9128;SDS011;4599;50.906;6.786;2023-04-23T17:08:44;2.90;;;1.90;;
9128;SDS011;4599;50.906;6.786;2023-04-23T17:12:45;5.70;;;4.17;;
9128;SDS011;4599;50.906;6.786;2023-04-23T17:16:47;2.83;;;1.73;;
9128;SDS011;4599;50.906;6.786;2023-04-23T17:20:50;3.07;;;2.03;;
9128;SDS011;4599;50.906;6.786;2023-04-23T17:24:51;5.20;;;1.83;;
9128;SDS011;4599;50.906;6.786;2023-04-23T17:28:53;4.13;;;1.77;;
9128;SDS011;4599;50.906;6.786;2023-04-23T17:32:54;6.90;;;2.07;;
9128;SDS011;4599;50.906;6.786;2023-04-23T17:36:57;4.73;;;1.70;;
9128;SDS011;4599;50.906;6.786;2023-04-23T17:40:59;1.43;;;1.33;;
9128;SDS011;4599;50.906;6.786;2023-04-23T17:45:00;2.67;;;1.30;;
9128;SDS011;4599;50.906;6.786;2023-04-23T17:49:02;1.90;;;1.50;;
9128;SDS011;4599;50.906;6.786;2023-04-23T17:53:05;2.33;;;2.00;;
9128;SDS011;4599;50.906;6.786;2023-04-23T17:57:06;4.20;;;2.43;;
9128;SDS011;4599;50.906;6.786;2023-04-23T18:01:07;4.43;;;2.70;;
9128;SDS011;4599;50.906;6.786;2023-04-23T18:05:10;3.40;;;2.07;;
9128;SDS011;4599;50.906;6.786;2023-04-23T18:09:14;2.30;;;2.10;;
9128;SDS011;4599;50.906;6.786;2023-04-23T18:13:15;2.50;;;2.30;;
9128;SDS011;4599;50.906;6.786;2023-04-23T18:17:17;3.40;;;2.07;;
9128;SDS011;4599;50.906;6.786;2023-04-23T18:21:18;4.67;;;3.27;;
9128;SDS011;4599;50.906;6.786;2023-04-23T18:25:21;6.70;;;4.80;;
9128;SDS011;4599;50.906;6.786;2023-04-23T18:29:23;9.27;;;4.17;;
9128;SDS011;4599;50.906;6.786;2023-04-23T18:33:28;2.80;;;2.53;;
9128;SDS011;4599;50.906;6.786;2023-04-23T18:37:31;5.67;;;3.50;;
9128;SDS011;4599;50.906;6.786;2023-04-23T18:41:39;4.07;;;3.07;;
9128;SDS011;4599;50.906;6.786;2023-04-23T18:45:41;4.97;;;3.27;;
9128;SDS011;4599;50.906;6.786;2023-04-23T18:49:43;4.03;;;2.50;;
9128;SDS011;4599;50.906;6.786;2023-04-23T18:53:46;2.77;;;1.60;;
9128;SDS011;4599;50.906;6.786;2023-04-23T18:57:50;5.33;;;3.10;;
9128;SDS011;4599;50.906;6.786;2023-04-23T19:01:52;2.03;;;1.70;;
9128;SDS011;4599;50.906;6.786;2023-04-23T19:05:55;5.23;;;1.50;;
9128;SDS011;4599;50.906;6.786;2023-04-23T19:09:57;4.23;;;1.40;;
9128;SDS011;4599;50.906;6.786;2023-04-23T19:13:59;3.67;;;2.07;;
9128;SDS011;4599;50.906;6.786;2023-04-23T19:18:01;2.80;;;1.80;;
9128;SDS011;4599;50.906;6.786;2023-04-23T19:22:03;1.10;;;1.10;;
9128;SDS011;4599;50.906;6.786;2023-04-23T19:26:04;2.40;;;1.00;;
9128;SDS011;4599;50.906;6.786;2023-04-23T19:30:07;2.03;;;1.20;;
9128;SDS011;4599;50.906;6.786;2023-04-23T19:34:09;1.63;;;1.10;;
9128;SDS011;4599;50.906;6.786;2023-04-23T19:38:11;1.23;;;1.10;;
9128;SDS011;4599;50.906;6.786;2023-04-23T19:42:12;2.33;;;1.30;;
9128;SDS011;4599;50.906;6.786;2023-04-23T19:46:15;2.77;;;1.50;;
9128;SDS011;4599;50.906;6.786;2023-04-23T19:50:17;2.93;;;0.90;;
9128;SDS011;4599;50.906;6.786;2023-04-23T19:54:18;1.03;;;0.90;;
9128;SDS011;4599;50.906;6.786;2023-04-23T19:58:22;2.17;;;1.10;;
9128;SDS011;4599;50.906;6.786;2023-04-23T20:02:25;1.57;;;1.00;;
9128;SDS011;4599;50.906;6.786;2023-04-23T20:06:26;1.00;;;0.90;;
9128;SDS011;4599;50.906;6.786;2023-04-23T20:10:28;2.37;;;1.00;;
9128;SDS011;4599;50.906;6.786;2023-04-23T20:14:29;0.60;;;0.60;;
9128;SDS011;4599;50.906;6.786;2023-04-23T20:18:32;0.90;;;0.80;;
9128;SDS011;4599;50.906;6.786;2023-04-23T20:22:34;0.77;;;0.67;;
9128;SDS011;4599;50.906;6.786;2023-04-23T20:26:36;1.33;;;0.70;;
9128;SDS011;4599;50.906;6.786;2023-04-23T20:30:38;2.07;;;0.50;;
9128;SDS011;4599;50.906;6.786;2023-04-23T20:34:42;3.50;;;0.63;;
9128;SDS011;4599;50.906;6.786;2023-04-23T20:38:44;0.50;;;0.50;;
9128;SDS011;4599;50.906;6.786;2023-04-23T20:42:45;0.40;;;0.40;;
9128;SDS011;4599;50.906;6.786;2023-04-23T20:46:47;1.27;;;0.80;;
9128;SDS011;4599;50.906;6.786;2023-04-23T20:50:50;1.83;;;1.00;;
9128;SDS011;4599;50.906;6.786;2023-04-23T20:54:51;2.20;;;0.70;;
9128;SDS011;4599;50.906;6.786;2023-04-23T20:58:55;1.43;;;0.40;;
9128;SDS011;4599;50.906;6.786;2023-04-23T21:02:56;0.50;;;0.50;;
9128;SDS011;4599;50.906;6.786;2023-04-23T21:06:59;0.50;;;0.50;;
9128;SDS011;4599;50.906;6.786;2023-04-23T21:11:01;0.57;;;0.57;;
9128;SDS011;4599;50.906;6.786;2023-04-23T21:15:03;0.93;;;0.50;;
9128;SDS011;4599;50.906;6.786;2023-04-23T21:19:05;1.47;;;0.60;;
9128;SDS011;4599;50.906;6.786;2023-04-23T21:23:09;1.17;;;0.60;;
9128;SDS011;4599;50.906;6.786;2023-04-23T21:27:10;0.40;;;0.40;;
9128;SDS011;4599;50.906;6.786;2023-04-23T21:31:16;0.60;;;0.60;;
9128;SDS011;4599;50.906;6.786;2023-04-23T21:35:28;1.33;;;0.50;;
9128;SDS011;4599;50.906;6.786;2023-04-23T21:39:31;0.60;;;0.60;;
9128;SDS011;4599;50.906;6.786;2023-04-23T21:43:32;0.50;;;0.50;;
9128;SDS011;4599;50.906;6.786;2023-04-23T21:47:34;0.60;;;0.60;;
9128;SDS011;4599;50.906;6.786;2023-04-23T21:51:35;0.97;;;0.70;;
9128;SDS011;4599;50.906;6.786;2023-04-23T21:55:38;0.73;;;0.50;;
9128;SDS011;4599;50.906;6.786;2023-04-23T21:59:40;0.60;;;0.60;;
9128;SDS011;4599;50.906;6.786;2023-04-23T22:03:42;0.50;;;0.50;;
9128;SDS011;4599;50.906;6.786;2023-04-23T22:07:44;1.13;;;0.50;;
9128;SDS011;4599;50.906;6.786;2023-04-23T22:11:47;0.60;;;0.60;;
9128;SDS011;4599;50.906;6.786;2023-04-23T22:16:02;1.03;;;0.60;;
9128;SDS011;4599;50.906;6.786;2023-04-23T22:20:17;2.10;;;0.60;;
9128;SDS011;4599;50.906;6.786;2023-04-23T22:24:19;0.40;;;0.40;;
9128;SDS011;4599;50.906;6.786;2023-04-23T22:28:21;0.50;;;0.50;;
9128;SDS011;4599;50.906;6.786;2023-04-23T22:32:23;0.47;;;0.40;;
9128;SDS011;4599;50.906;6.786;2023-04-23T22:36:25;0.40;;;0.40;;
9128;SDS011;4599;50.906;6.786;2023-04-23T22:40:26;2.40;;;0.87;;
9128;SDS011;4599;50.906;6.786;2023-04-23T22:44:29;0.40;;;0.40;;
9128;SDS011;4599;50.906;6.786;2023-04-23T22:48:30;2.57;;;0.67;;
9128;SDS011;4599;50.906;6.786;2023-04-23T22:52:32;1.17;;;0.77;;
9128;SDS011;4599;50.906;6.786;2023-04-23T22:56:33;4.23;;;0.87;;
9128;SDS011;4599;50.906;6.786;2023-04-23T23:00:36;0.97;;;0.80;;
9128;SDS011;4599;50.906;6.786;2023-04-23T23:04:38;1.30;;;0.80;;
9128;SDS011;4599;50.906;6.786;2023-04-23T23:08:39;0.60;;;0.60;;
9128;SDS011;4599;50.906;6.786;2023-04-23T23:12:41;0.67;;;0.67;;
9128;SDS011;4599;50.906;6.786;2023-04-23T23:16:44;2.00;;;0.60;;
9128;SDS011;4599;50.906;6.786;2023-04-23T23:20:45;0.60;;;0.60;;
9128;SDS011;4599;50.906;6.786;2023-04-23T23:24:47;3.00;;;1.00;;
9128;SDS011;4599;50.906;6.786;2023-04-23T23:28:48;2.53;;;0.77;;
9128;SDS011;4599;50.906;6.786;2023-04-23T23:32:51;2.10;;;0.60;;
9128;SDS011;4599;50.906;6.786;2023-04-23T23:36:53;3.00;;;1.13;;
9128;SDS011;4599;50.906;6.786;2023-04-23T23:40:55;1.43;;;0.70;;
9128;SDS011;4599;50.906;6.786;2023-04-23T23:44:56;2.70;;;1.00;;
9128;SDS011;4599;50.906;6.786;2023-04-23T23:48:59;2.60;;;1.00;;
9128;SDS011;4599;50.906;6.786;2023-04-23T23:53:01;2.57;;;0.90;;
9128;SDS011;4599;50.906;6.786;2023-04-23T23:57:02;0.80;;;0.80;;
